sensor_id;sensor_type;location;lat;lon;timestamp;P1;durP1;ratioP1;P2;durP2;ratioP2
1625;SDS011;806;48.770;9.156;2023-01-16T00:01:51;0.80;;;0.20;;
1625;SDS011;806;48.770;9.156;2023-01-16T00:04:19;0.60;;;0.60;;
1625;SDS011;806;48.770;9.156;2023-01-16T00:06:46;1.50;;;0.20;;
1625;SDS011;806;48.770;9.156;2023-01-16T00:09:13;0.37;;;0.10;;
1625;SDS011;806;48.770;9.156;2023-01-16T00:11:42;0.50;;;0.20;;
1625;SDS011;806;48.770;9.156;2023-01-16T00:14:09;0.43;;;0.20;;
1625;SDS011;806;48.770;9.156;2023-01-16T00:16:36;0.40;;;0.10;;
1625;SDS011;806;48.770;9.156;2023-01-16T00:19:04;0.40;;;0.20;;
1625;SDS011;806;48.770;9.156;2023-01-16T00:21:31;0.35;;;0.20;;
1625;SDS011;806;48.770;9.156;2023-01-16T00:23:58;0.90;;;0.20;;
1625;SDS011;806;48.770;9.156;2023-01-16T00:26:26;0.50;;;0.20;;
1625;SDS011;806;48.770;9.156;2023-01-16T00:29:03;0.60;;;0.20;;
1625;SDS011;806;48.770;9.156;2023-01-16T00:31:30;0.50;;;0.20;;
1625;SDS011;806;48.770;9.156;2023-01-16T00:33:57;0.50;;;0.20;;
1625;SDS011;806;48.770;9.156;2023-01-16T00:36:25;0.60;;;0.20;;
1625;SDS011;806;48.770;9.156;2023-01-16T00:38:52;0.40;;;0.20;;
1625;SDS011;806;48.770;9.156;2023-01-16T00:41:20;0.60;;;0.20;;
1625;SDS011;806;48.770;9.156;2023-01-16T00:43:47;0.75;;;0.20;;
1625;SDS011;806;48.770;9.156;2023-01-16T00:46:16;0.90;;;0.10;;
1625;SDS011;806;48.770;9.156;2023-01-16T00:48:43;0.90;;;0.20;;
1625;SDS011;806;48.770;9.156;2023-01-16T00:51:10;0.60;;;0.20;;
1625;SDS011;806;48.770;9.156;2023-01-16T00:53:37;0.50;;;0.20;;
1625;SDS011;806;48.770;9.156;2023-01-16T00:56:05;0.80;;;0.20;;
1625;SDS011;806;48.770;9.156;2023-01-16T00:58:33;0.90;;;0.20;;
1625;SDS011;806;48.770;9.156;2023-01-16T01:01:00;0.40;;;0.20;;
1625;SDS011;806;48.770;9.156;2023-01-16T01:03:29;0.60;;;0.20;;
1625;SDS011;806;48.770;9.156;2023-01-16T01:05:57;0.70;;;0.20;;
1625;SDS011;806;48.770;9.156;2023-01-16T01:08:24;0.50;;;0.20;;
1625;SDS011;806;48.770;9.156;2023-01-16T01:10:51;0.65;;;0.20;;
1625;SDS011;806;48.770;9.156;2023-01-16T01:13:18;0.50;;;0.20;;
1625;SDS011;806;48.770;9.156;2023-01-16T01:15:45;0.40;;;0.10;;
1625;SDS011;806;48.770;9.156;2023-01-16T01:18:13;1.05;;;0.10;;
1625;SDS011;806;48.770;9.156;2023-01-16T01:20:41;0.40;;;0.20;;
1625;SDS011;806;48.770;9.156;2023-01-16T01:23:08;0.77;;;0.15;;
1625;SDS011;806;48.770;9.156;2023-01-16T01:25:36;0.40;;;0.10;;
1625;SDS011;806;48.770;9.156;2023-01-16T01:28:04;0.70;;;0.20;;
1625;SDS011;806;48.770;9.156;2023-01-16T01:30:31;0.90;;;0.20;;
1625;SDS011;806;48.770;9.156;2023-01-16T01:32:58;0.40;;;0.20;;
1625;SDS011;806;48.770;9.156;2023-01-16T01:35:25;1.20;;;0.20;;
1625;SDS011;806;48.770;9.156;2023-01-16T01:37:54;0.40;;;0.20;;
1625;SDS011;806;48.770;9.156;2023-01-16T01:40:21;1.20;;;0.10;;
1625;SDS011;806;48.770;9.156;2023-01-16T01:42:48;0.50;;;0.20;;
1625;SDS011;806;48.770;9.156;2023-01-16T01:45:20;0.50;;;0.20;;
1625;SDS011;806;48.770;9.156;2023-01-16T01:47:50;0.40;;;0.20;;
1625;SDS011;806;48.770;9.156;2023-01-16T01:50:23;0.40;;;0.20;;
1625;SDS011;806;48.770;9.156;2023-01-16T01:53:01;1.00;;;0.20;;
1625;SDS011;806;48.770;9.156;2023-01-16T01:55:33;1.80;;;0.20;;
1625;SDS011;806;48.770;9.156;2023-01-16T01:58:01;0.40;;;0.20;;
1625;SDS011;806;48.770;9.156;2023-01-16T02:00:29;0.40;;;0.10;;
1625;SDS011;806;48.770;9.156;2023-01-16T02:02:58;0.40;;;0.20;;
1625;SDS011;806;48.770;9.156;2023-01-16T02:05:31;0.70;;;0.10;;
1625;SDS011;806;48.770;9.156;2023-01-16T02:08:04;0.40;;;0.10;;
1625;SDS011;806;48.770;9.156;2023-01-16T02:10:34;0.60;;;0.20;;
1625;SDS011;806;48.770;9.156;2023-01-16T02:13:04;0.98;;;0.20;;
1625;SDS011;806;48.770;9.156;2023-01-16T02:15:33;0.90;;;0.20;;
1625;SDS011;806;48.770;9.156;2023-01-16T02:18:00;0.30;;;0.10;;
1625;SDS011;806;48.770;9.156;2023-01-16T02:20:50;1.30;;;0.20;;
1625;SDS011;806;48.770;9.156;2023-01-16T02:23:37;0.88;;;0.20;;
1625;SDS011;806;48.770;9.156;2023-01-16T02:26:45;0.60;;;0.20;;
1625;SDS011;806;48.770;9.156;2023-01-16T02:32:42;0.50;;;0.20;;
1625;SDS011;806;48.770;9.156;2023-01-16T02:35:21;0.70;;;0.20;;
1625;SDS011;806;48.770;9.156;2023-01-16T02:37:59;0.60;;;0.20;;
1625;SDS011;806;48.770;9.156;2023-01-16T02:40:33;0.98;;;0.20;;
1625;SDS011;806;48.770;9.156;2023-01-16T02:43:11;0.60;;;0.20;;
1625;SDS011;806;48.770;9.156;2023-01-16T02:45:47;1.10;;;0.20;;
1625;SDS011;806;48.770;9.156;2023-01-16T02:48:23;1.30;;;0.20;;
1625;SDS011;806;48.770;9.156;2023-01-16T02:50:57;0.40;;;0.10;;
1625;SDS011;806;48.770;9.156;2023-01-16T02:53:32;1.00;;;0.20;;
1625;SDS011;806;48.770;9.156;2023-01-16T02:56:03;0.40;;;0.20;;
1625;SDS011;806;48.770;9.156;2023-01-16T02:58:35;0.90;;;0.20;;
1625;SDS011;806;48.770;9.156;2023-01-16T03:01:07;0.80;;;0.20;;
1625;SDS011;806;48.770;9.156;2023-01-16T03:03:39;0.60;;;0.20;;
1625;SDS011;806;48.770;9.156;2023-01-16T03:06:18;0.40;;;0.20;;
1625;SDS011;806;48.770;9.156;2023-01-16T03:09:03;0.40;;;0.20;;
1625;SDS011;806;48.770;9.156;2023-01-16T03:11:52;0.50;;;0.10;;
1625;SDS011;806;48.770;9.156;2023-01-16T03:14:35;0.80;;;0.20;;
1625;SDS011;806;48.770;9.156;2023-01-16T03:17:16;0.40;;;0.20;;
1625;SDS011;806;48.770;9.156;2023-01-16T03:19:55;0.85;;;0.20;;
1625;SDS011;806;48.770;9.156;2023-01-16T03:22:34;0.50;;;0.20;;
1625;SDS011;806;48.770;9.156;2023-01-16T03:25:11;0.85;;;0.15;;
1625;SDS011;806;48.770;9.156;2023-01-16T03:27:50;0.47;;;0.20;;
1625;SDS011;806;48.770;9.156;2023-01-16T03:30:24;0.80;;;0.20;;
1625;SDS011;806;48.770;9.156;2023-01-16T03:32:57;0.60;;;0.20;;
1625;SDS011;806;48.770;9.156;2023-01-16T03:35:32;0.65;;;0.28;;
1625;SDS011;806;48.770;9.156;2023-01-16T03:38:04;1.25;;;0.20;;
1625;SDS011;806;48.770;9.156;2023-01-16T03:40:35;0.47;;;0.20;;
1625;SDS011;806;48.770;9.156;2023-01-16T03:43:07;0.40;;;0.13;;
1625;SDS011;806;48.770;9.156;2023-01-16T03:45:39;0.85;;;0.20;;
1625;SDS011;806;48.770;9.156;2023-01-16T03:48:10;0.60;;;0.30;;
1625;SDS011;806;48.770;9.156;2023-01-16T03:50:44;0.35;;;0.10;;
1625;SDS011;806;48.770;9.156;2023-01-16T03:53:18;0.60;;;0.20;;
1625;SDS011;806;48.770;9.156;2023-01-16T03:55:50;1.00;;;0.20;;
1625;SDS011;806;48.770;9.156;2023-01-16T03:58:24;0.40;;;0.10;;
1625;SDS011;806;48.770;9.156;2023-01-16T04:00:56;0.35;;;0.15;;
1625;SDS011;806;48.770;9.156;2023-01-16T04:03:27;0.52;;;0.20;;
1625;SDS011;806;48.770;9.156;2023-01-16T04:06:02;0.40;;;0.10;;
1625;SDS011;806;48.770;9.156;2023-01-16T04:08:34;1.00;;;0.20;;
1625;SDS011;806;48.770;9.156;2023-01-16T04:11:05;0.40;;;0.10;;
1625;SDS011;806;48.770;9.156;2023-01-16T04:13:36;1.10;;;0.20;;
1625;SDS011;806;48.770;9.156;2023-01-16T04:16:06;0.50;;;0.20;;
1625;SDS011;806;48.770;9.156;2023-01-16T04:18:35;0.50;;;0.20;;
1625;SDS011;806;48.770;9.156;2023-01-16T04:21:05;0.60;;;0.20;;
1625;SDS011;806;48.770;9.156;2023-01-16T04:23:34;0.47;;;0.20;;
1625;SDS011;806;48.770;9.156;2023-01-16T04:26:01;0.40;;;0.20;;
1625;SDS011;806;48.770;9.156;2023-01-16T04:28:29;0.50;;;0.20;;
1625;SDS011;806;48.770;9.156;2023-01-16T04:30:56;1.10;;;0.30;;
1625;SDS011;806;48.770;9.156;2023-01-16T04:33:23;0.40;;;0.20;;
1625;SDS011;806;48.770;9.156;2023-01-16T04:35:50;0.50;;;0.10;;
1625;SDS011;806;48.770;9.156;2023-01-16T04:38:19;0.60;;;0.20;;
1625;SDS011;806;48.770;9.156;2023-01-16T04:40:46;0.50;;;0.20;;
1625;SDS011;806;48.770;9.156;2023-01-16T04:43:13;0.88;;;0.20;;
1625;SDS011;806;48.770;9.156;2023-01-16T04:45:40;1.70;;;0.20;;
1625;SDS011;806;48.770;9.156;2023-01-16T04:48:08;0.80;;;0.20;;
1625;SDS011;806;48.770;9.156;2023-01-16T04:50:35;0.90;;;0.30;;
1625;SDS011;806;48.770;9.156;2023-01-16T04:53:02;1.00;;;0.20;;
1625;SDS011;806;48.770;9.156;2023-01-16T04:55:31;0.60;;;0.20;;
1625;SDS011;806;48.770;9.156;2023-01-16T04:57:58;0.40;;;0.20;;
1625;SDS011;806;48.770;9.156;2023-01-16T05:00:25;0.60;;;0.20;;
1625;SDS011;806;48.770;9.156;2023-01-16T05:02:53;0.50;;;0.20;;
1625;SDS011;806;48.770;9.156;2023-01-16T05:05:20;1.30;;;0.20;;
1625;SDS011;806;48.770;9.156;2023-01-16T05:07:47;1.40;;;0.30;;
1625;SDS011;806;48.770;9.156;2023-01-16T05:10:36;1.00;;;0.30;;
1625;SDS011;806;48.770;9.156;2023-01-16T05:13:03;0.57;;;0.30;;
1625;SDS011;806;48.770;9.156;2023-01-16T05:15:30;1.30;;;0.20;;
1625;SDS011;806;48.770;9.156;2023-01-16T05:17:57;1.10;;;0.40;;
1625;SDS011;806;48.770;9.156;2023-01-16T05:20:24;1.08;;;0.30;;
1625;SDS011;806;48.770;9.156;2023-01-16T05:22:52;1.75;;;0.40;;
1625;SDS011;806;48.770;9.156;2023-01-16T05:25:19;0.80;;;0.30;;
1625;SDS011;806;48.770;9.156;2023-01-16T05:27:50;0.90;;;0.30;;
1625;SDS011;806;48.770;9.156;2023-01-16T05:30:17;0.80;;;0.30;;
1625;SDS011;806;48.770;9.156;2023-01-16T05:32:44;0.73;;;0.30;;
1625;SDS011;806;48.770;9.156;2023-01-16T05:35:12;0.70;;;0.40;;
1625;SDS011;806;48.770;9.156;2023-01-16T05:37:41;0.50;;;0.30;;
1625;SDS011;806;48.770;9.156;2023-01-16T05:40:09;1.95;;;0.30;;
1625;SDS011;806;48.770;9.156;2023-01-16T05:42:37;0.57;;;0.30;;
1625;SDS011;806;48.770;9.156;2023-01-16T05:45:06;0.60;;;0.30;;
1625;SDS011;806;48.770;9.156;2023-01-16T05:47:34;0.60;;;0.30;;
1625;SDS011;806;48.770;9.156;2023-01-16T05:50:01;0.60;;;0.30;;
1625;SDS011;806;48.770;9.156;2023-01-16T05:52:29;0.80;;;0.40;;
1625;SDS011;806;48.770;9.156;2023-01-16T05:54:56;1.00;;;0.30;;
1625;SDS011;806;48.770;9.156;2023-01-16T05:57:23;1.00;;;0.30;;
1625;SDS011;806;48.770;9.156;2023-01-16T05:59:51;0.80;;;0.20;;
1625;SDS011;806;48.770;9.156;2023-01-16T06:02:20;2.00;;;0.30;;
1625;SDS011;806;48.770;9.156;2023-01-16T06:04:47;0.70;;;0.30;;
1625;SDS011;806;48.770;9.156;2023-01-16T06:07:15;0.70;;;0.30;;
1625;SDS011;806;48.770;9.156;2023-01-16T06:09:42;0.70;;;0.37;;
1625;SDS011;806;48.770;9.156;2023-01-16T06:12:11;1.10;;;0.40;;
1625;SDS011;806;48.770;9.156;2023-01-16T06:14:41;1.20;;;0.32;;
1625;SDS011;806;48.770;9.156;2023-01-16T06:17:08;0.60;;;0.30;;
1625;SDS011;806;48.770;9.156;2023-01-16T06:19:37;0.80;;;0.40;;
1625;SDS011;806;48.770;9.156;2023-01-16T06:22:04;1.13;;;0.30;;
1625;SDS011;806;48.770;9.156;2023-01-16T06:24:32;0.40;;;0.30;;
1625;SDS011;806;48.770;9.156;2023-01-16T06:26:59;0.90;;;0.30;;
1625;SDS011;806;48.770;9.156;2023-01-16T06:29:26;1.00;;;0.30;;
1625;SDS011;806;48.770;9.156;2023-01-16T06:31:53;0.75;;;0.30;;
1625;SDS011;806;48.770;9.156;2023-01-16T06:34:20;0.70;;;0.30;;
1625;SDS011;806;48.770;9.156;2023-01-16T06:36:49;0.50;;;0.30;;
1625;SDS011;806;48.770;9.156;2023-01-16T06:39:16;0.80;;;0.27;;
1625;SDS011;806;48.770;9.156;2023-01-16T06:41:44;0.40;;;0.30;;
1625;SDS011;806;48.770;9.156;2023-01-16T06:44:11;1.30;;;0.20;;
1625;SDS011;806;48.770;9.156;2023-01-16T06:46:38;1.00;;;0.20;;
1625;SDS011;806;48.770;9.156;2023-01-16T06:49:05;0.55;;;0.30;;
1625;SDS011;806;48.770;9.156;2023-01-16T06:51:32;0.90;;;0.30;;
1625;SDS011;806;48.770;9.156;2023-01-16T06:54:01;0.90;;;0.20;;
1625;SDS011;806;48.770;9.156;2023-01-16T06:56:29;0.80;;;0.20;;
1625;SDS011;806;48.770;9.156;2023-01-16T06:58:56;1.30;;;0.30;;
1625;SDS011;806;48.770;9.156;2023-01-16T07:01:23;0.70;;;0.30;;
1625;SDS011;806;48.770;9.156;2023-01-16T07:03:51;0.60;;;0.30;;
1625;SDS011;806;48.770;9.156;2023-01-16T07:06:18;0.50;;;0.30;;
1625;SDS011;806;48.770;9.156;2023-01-16T07:08:45;0.50;;;0.20;;
1625;SDS011;806;48.770;9.156;2023-01-16T07:11:15;1.00;;;0.50;;
1625;SDS011;806;48.770;9.156;2023-01-16T07:13:43;0.80;;;0.30;;
1625;SDS011;806;48.770;9.156;2023-01-16T07:16:11;0.60;;;0.30;;
1625;SDS011;806;48.770;9.156;2023-01-16T07:18:59;1.00;;;0.30;;
1625;SDS011;806;48.770;9.156;2023-01-16T07:21:44;0.98;;;0.30;;
1625;SDS011;806;48.770;9.156;2023-01-16T07:24:33;1.10;;;0.30;;
1625;SDS011;806;48.770;9.156;2023-01-16T07:27:04;1.60;;;0.30;;
1625;SDS011;806;48.770;9.156;2023-01-16T07:29:34;0.60;;;0.30;;
1625;SDS011;806;48.770;9.156;2023-01-16T07:32:01;6.40;;;0.30;;
1625;SDS011;806;48.770;9.156;2023-01-16T07:34:30;0.50;;;0.30;;
1625;SDS011;806;48.770;9.156;2023-01-16T07:36:57;0.60;;;0.30;;
1625;SDS011;806;48.770;9.156;2023-01-16T07:39:24;0.60;;;0.30;;
1625;SDS011;806;48.770;9.156;2023-01-16T07:41:51;0.50;;;0.30;;
1625;SDS011;806;48.770;9.156;2023-01-16T07:44:20;1.40;;;0.30;;
1625;SDS011;806;48.770;9.156;2023-01-16T07:46:47;0.55;;;0.32;;
1625;SDS011;806;48.770;9.156;2023-01-16T07:49:14;0.65;;;0.30;;
1625;SDS011;806;48.770;9.156;2023-01-16T07:51:42;1.50;;;0.40;;
1625;SDS011;806;48.770;9.156;2023-01-16T07:54:09;1.15;;;0.30;;
1625;SDS011;806;48.770;9.156;2023-01-16T07:56:36;0.70;;;0.30;;
1625;SDS011;806;48.770;9.156;2023-01-16T07:59:03;0.50;;;0.30;;
1625;SDS011;806;48.770;9.156;2023-01-16T08:01:32;0.60;;;0.30;;
1625;SDS011;806;48.770;9.156;2023-01-16T08:04:00;1.30;;;0.30;;
1625;SDS011;806;48.770;9.156;2023-01-16T08:06:27;1.60;;;0.40;;
1625;SDS011;806;48.770;9.156;2023-01-16T08:08:55;1.27;;;0.40;;
1625;SDS011;806;48.770;9.156;2023-01-16T08:11:22;1.13;;;0.40;;
1625;SDS011;806;48.770;9.156;2023-01-16T08:14:01;1.40;;;0.40;;
1625;SDS011;806;48.770;9.156;2023-01-16T08:16:29;0.60;;;0.40;;
1625;SDS011;806;48.770;9.156;2023-01-16T08:18:58;1.00;;;0.30;;
1625;SDS011;806;48.770;9.156;2023-01-16T08:21:25;0.70;;;0.30;;
1625;SDS011;806;48.770;9.156;2023-01-16T08:23:52;0.80;;;0.30;;
1625;SDS011;806;48.770;9.156;2023-01-16T08:26:20;0.60;;;0.30;;
1625;SDS011;806;48.770;9.156;2023-01-16T08:28:47;0.60;;;0.30;;
1625;SDS011;806;48.770;9.156;2023-01-16T08:31:14;0.40;;;0.20;;
1625;SDS011;806;48.770;9.156;2023-01-16T08:33:43;0.55;;;0.30;;
1625;SDS011;806;48.770;9.156;2023-01-16T08:36:13;2.80;;;0.30;;
1625;SDS011;806;48.770;9.156;2023-01-16T08:38:41;1.10;;;0.30;;
1625;SDS011;806;48.770;9.156;2023-01-16T08:41:09;0.60;;;0.30;;
1625;SDS011;806;48.770;9.156;2023-01-16T08:43:56;0.50;;;0.20;;
1625;SDS011;806;48.770;9.156;2023-01-16T08:46:41;0.60;;;0.30;;
1625;SDS011;806;48.770;9.156;2023-01-16T08:49:26;0.70;;;0.20;;
1625;SDS011;806;48.770;9.156;2023-01-16T08:52:12;0.52;;;0.30;;
1625;SDS011;806;48.770;9.156;2023-01-16T08:54:40;1.10;;;0.30;;
1625;SDS011;806;48.770;9.156;2023-01-16T08:57:08;0.60;;;0.30;;
1625;SDS011;806;48.770;9.156;2023-01-16T08:59:36;1.03;;;0.30;;
1625;SDS011;806;48.770;9.156;2023-01-16T09:02:03;0.80;;;0.30;;
1625;SDS011;806;48.770;9.156;2023-01-16T09:04:34;0.60;;;0.20;;
1625;SDS011;806;48.770;9.156;2023-01-16T09:07:02;0.60;;;0.20;;
1625;SDS011;806;48.770;9.156;2023-01-16T09:09:30;1.02;;;0.20;;
1625;SDS011;806;48.770;9.156;2023-01-16T09:11:57;0.50;;;0.20;;
1625;SDS011;806;48.770;9.156;2023-01-16T09:14:42;0.80;;;0.20;;
1625;SDS011;806;48.770;9.156;2023-01-16T09:17:09;0.50;;;0.20;;
1625;SDS011;806;48.770;9.156;2023-01-16T09:19:37;0.90;;;0.20;;
1625;SDS011;806;48.770;9.156;2023-01-16T09:22:04;0.90;;;0.20;;
1625;SDS011;806;48.770;9.156;2023-01-16T09:24:33;0.50;;;0.20;;
1625;SDS011;806;48.770;9.156;2023-01-16T09:27:01;0.60;;;0.20;;
1625;SDS011;806;48.770;9.156;2023-01-16T09:29:28;0.50;;;0.20;;
1625;SDS011;806;48.770;9.156;2023-01-16T09:31:55;1.00;;;0.20;;
1625;SDS011;806;48.770;9.156;2023-01-16T09:34:23;1.33;;;0.20;;
1625;SDS011;806;48.770;9.156;2023-01-16T09:36:50;0.40;;;0.20;;
1625;SDS011;806;48.770;9.156;2023-01-16T09:39:18;0.40;;;0.20;;
1625;SDS011;806;48.770;9.156;2023-01-16T09:41:51;0.50;;;0.20;;
1625;SDS011;806;48.770;9.156;2023-01-16T09:44:44;0.50;;;0.30;;
1625;SDS011;806;48.770;9.156;2023-01-16T09:47:14;0.50;;;0.20;;
1625;SDS011;806;48.770;9.156;2023-01-16T09:49:43;0.50;;;0.20;;
1625;SDS011;806;48.770;9.156;2023-01-16T09:52:15;0.40;;;0.20;;
1625;SDS011;806;48.770;9.156;2023-01-16T09:55:04;0.80;;;0.20;;
1625;SDS011;806;48.770;9.156;2023-01-16T09:58:01;0.50;;;0.32;;
1625;SDS011;806;48.770;9.156;2023-01-16T10:00:46;1.80;;;0.20;;
1625;SDS011;806;48.770;9.156;2023-01-16T10:03:14;0.70;;;0.20;;
1625;SDS011;806;48.770;9.156;2023-01-16T10:05:43;0.45;;;0.20;;
1625;SDS011;806;48.770;9.156;2023-01-16T10:08:15;0.47;;;0.20;;
1625;SDS011;806;48.770;9.156;2023-01-16T10:10:51;0.40;;;0.20;;
1625;SDS011;806;48.770;9.156;2023-01-16T10:13:36;0.90;;;0.20;;
1625;SDS011;806;48.770;9.156;2023-01-16T10:16:25;0.40;;;0.20;;
1625;SDS011;806;48.770;9.156;2023-01-16T10:19:02;0.40;;;0.20;;
1625;SDS011;806;48.770;9.156;2023-01-16T10:21:49;1.30;;;0.30;;
1625;SDS011;806;48.770;9.156;2023-01-16T10:24:28;0.40;;;0.20;;
1625;SDS011;806;48.770;9.156;2023-01-16T10:27:06;1.90;;;0.20;;
1625;SDS011;806;48.770;9.156;2023-01-16T10:29:42;0.77;;;0.20;;
1625;SDS011;806;48.770;9.156;2023-01-16T10:32:14;0.40;;;0.20;;
1625;SDS011;806;48.770;9.156;2023-01-16T10:34:48;0.40;;;0.20;;
1625;SDS011;806;48.770;9.156;2023-01-16T10:37:20;0.40;;;0.20;;
1625;SDS011;806;48.770;9.156;2023-01-16T10:39:49;0.30;;;0.10;;
1625;SDS011;806;48.770;9.156;2023-01-16T10:42:18;1.10;;;0.10;;
1625;SDS011;806;48.770;9.156;2023-01-16T10:45:11;0.50;;;0.20;;
1625;SDS011;806;48.770;9.156;2023-01-16T10:47:58;0.80;;;0.20;;
1625;SDS011;806;48.770;9.156;2023-01-16T10:50:43;0.60;;;0.22;;
1625;SDS011;806;48.770;9.156;2023-01-16T10:53:11;0.90;;;0.20;;
1625;SDS011;806;48.770;9.156;2023-01-16T10:55:39;0.70;;;0.13;;
1625;SDS011;806;48.770;9.156;2023-01-16T10:58:15;0.40;;;0.10;;
1625;SDS011;806;48.770;9.156;2023-01-16T11:00:51;0.40;;;0.10;;
1625;SDS011;806;48.770;9.156;2023-01-16T11:03:25;0.70;;;0.20;;
1625;SDS011;806;48.770;9.156;2023-01-16T11:06:06;0.60;;;0.10;;
1625;SDS011;806;48.770;9.156;2023-01-16T11:08:36;0.60;;;0.20;;
1625;SDS011;806;48.770;9.156;2023-01-16T11:11:03;0.40;;;0.20;;
1625;SDS011;806;48.770;9.156;2023-01-16T11:13:51;0.50;;;0.20;;
1625;SDS011;806;48.770;9.156;2023-01-16T11:16:37;0.60;;;0.20;;
1625;SDS011;806;48.770;9.156;2023-01-16T11:19:23;0.40;;;0.20;;
1625;SDS011;806;48.770;9.156;2023-01-16T11:21:53;0.30;;;0.10;;
1625;SDS011;806;48.770;9.156;2023-01-16T11:24:22;0.50;;;0.20;;
1625;SDS011;806;48.770;9.156;2023-01-16T11:26:55;1.20;;;0.20;;
1625;SDS011;806;48.770;9.156;2023-01-16T11:29:26;0.30;;;0.10;;
1625;SDS011;806;48.770;9.156;2023-01-16T11:31:59;0.50;;;0.20;;
1625;SDS011;806;48.770;9.156;2023-01-16T11:34:36;0.40;;;0.13;;
1625;SDS011;806;48.770;9.156;2023-01-16T11:37:05;0.40;;;0.20;;
1625;SDS011;806;48.770;9.156;2023-01-16T11:39:34;0.60;;;0.20;;
1625;SDS011;806;48.770;9.156;2023-01-16T11:42:03;0.70;;;0.20;;
1625;SDS011;806;48.770;9.156;2023-01-16T11:44:58;0.30;;;0.10;;
1625;SDS011;806;48.770;9.156;2023-01-16T11:47:49;0.47;;;0.20;;
1625;SDS011;806;48.770;9.156;2023-01-16T11:52:53;0.30;;;0.10;;
1625;SDS011;806;48.770;9.156;2023-01-16T11:55:20;0.30;;;0.10;;
1625;SDS011;806;48.770;9.156;2023-01-16T11:57:59;0.40;;;0.15;;
1625;SDS011;806;48.770;9.156;2023-01-16T12:00:43;0.40;;;0.10;;
1625;SDS011;806;48.770;9.156;2023-01-16T12:03:26;0.80;;;0.10;;
1625;SDS011;806;48.770;9.156;2023-01-16T12:06:23;0.40;;;0.10;;
1625;SDS011;806;48.770;9.156;2023-01-16T12:09:09;0.88;;;0.13;;
1625;SDS011;806;48.770;9.156;2023-01-16T12:11:52;0.40;;;0.20;;
1625;SDS011;806;48.770;9.156;2023-01-16T12:14:49;0.52;;;0.20;;
1625;SDS011;806;48.770;9.156;2023-01-16T12:17:22;0.70;;;0.40;;
1625;SDS011;806;48.770;9.156;2023-01-16T12:20:03;0.50;;;0.20;;
1625;SDS011;806;48.770;9.156;2023-01-16T12:22:45;0.35;;;0.20;;
1625;SDS011;806;48.770;9.156;2023-01-16T12:25:32;0.40;;;0.20;;
1625;SDS011;806;48.770;9.156;2023-01-16T12:28:08;0.30;;;0.10;;
1625;SDS011;806;48.770;9.156;2023-01-16T12:30:51;0.40;;;0.20;;
1625;SDS011;806;48.770;9.156;2023-01-16T12:33:43;0.50;;;0.20;;
1625;SDS011;806;48.770;9.156;2023-01-16T12:36:15;0.47;;;0.20;;
1625;SDS011;806;48.770;9.156;2023-01-16T12:38:50;0.60;;;0.30;;
1625;SDS011;806;48.770;9.156;2023-01-16T12:41:26;1.00;;;0.30;;
1625;SDS011;806;48.770;9.156;2023-01-16T12:44:20;0.40;;;0.20;;
1625;SDS011;806;48.770;9.156;2023-01-16T12:47:03;0.40;;;0.10;;
1625;SDS011;806;48.770;9.156;2023-01-16T12:49:46;0.40;;;0.10;;
1625;SDS011;806;48.770;9.156;2023-01-16T12:52:24;0.30;;;0.15;;
1625;SDS011;806;48.770;9.156;2023-01-16T12:55:02;0.30;;;0.10;;
1625;SDS011;806;48.770;9.156;2023-01-16T12:57:46;0.40;;;0.20;;
1625;SDS011;806;48.770;9.156;2023-01-16T13:00:27;0.40;;;0.20;;
1625;SDS011;806;48.770;9.156;2023-01-16T13:02:57;0.38;;;0.10;;
1625;SDS011;806;48.770;9.156;2023-01-16T13:05:28;0.30;;;0.10;;
1625;SDS011;806;48.770;9.156;2023-01-16T13:08:01;0.30;;;0.10;;
1625;SDS011;806;48.770;9.156;2023-01-16T13:10:35;0.30;;;0.10;;
1625;SDS011;806;48.770;9.156;2023-01-16T13:13:21;1.15;;;0.10;;
1625;SDS011;806;48.770;9.156;2023-01-16T13:15:58;0.30;;;0.10;;
1625;SDS011;806;48.770;9.156;2023-01-16T13:18:29;0.30;;;0.10;;
1625;SDS011;806;48.770;9.156;2023-01-16T13:21:04;0.40;;;0.20;;
1625;SDS011;806;48.770;9.156;2023-01-16T13:23:38;1.30;;;0.70;;
1625;SDS011;806;48.770;9.156;2023-01-16T13:26:11;0.90;;;0.20;;
1625;SDS011;806;48.770;9.156;2023-01-16T13:28:42;0.30;;;0.17;;
1625;SDS011;806;48.770;9.156;2023-01-16T13:31:15;0.30;;;0.10;;
1625;SDS011;806;48.770;9.156;2023-01-16T13:33:50;0.30;;;0.10;;
1625;SDS011;806;48.770;9.156;2023-01-16T13:36:30;0.30;;;0.10;;
1625;SDS011;806;48.770;9.156;2023-01-16T13:39:49;0.30;;;0.10;;
1625;SDS011;806;48.770;9.156;2023-01-16T13:42:37;0.40;;;0.10;;
1625;SDS011;806;48.770;9.156;2023-01-16T13:45:14;0.40;;;0.20;;
1625;SDS011;806;48.770;9.156;2023-01-16T13:48:01;0.40;;;0.10;;
1625;SDS011;806;48.770;9.156;2023-01-16T13:50:30;0.40;;;0.10;;
1625;SDS011;806;48.770;9.156;2023-01-16T13:53:01;0.30;;;0.10;;
1625;SDS011;806;48.770;9.156;2023-01-16T13:55:33;0.30;;;0.10;;
1625;SDS011;806;48.770;9.156;2023-01-16T13:58:09;0.70;;;0.10;;
1625;SDS011;806;48.770;9.156;2023-01-16T14:00:43;0.60;;;0.20;;
1625;SDS011;806;48.770;9.156;2023-01-16T14:03:18;0.40;;;0.20;;
1625;SDS011;806;48.770;9.156;2023-01-16T14:05:48;0.50;;;0.10;;
1625;SDS011;806;48.770;9.156;2023-01-16T14:08:18;0.38;;;0.10;;
1625;SDS011;806;48.770;9.156;2023-01-16T14:11:32;0.32;;;0.10;;
1625;SDS011;806;48.770;9.156;2023-01-16T14:14:21;0.30;;;0.10;;
1625;SDS011;806;48.770;9.156;2023-01-16T14:17:17;0.30;;;0.10;;
1625;SDS011;806;48.770;9.156;2023-01-16T14:19:58;0.30;;;0.10;;
1625;SDS011;806;48.770;9.156;2023-01-16T14:22:26;0.50;;;0.10;;
1625;SDS011;806;48.770;9.156;2023-01-16T14:25:19;0.30;;;0.10;;
1625;SDS011;806;48.770;9.156;2023-01-16T14:27:54;0.30;;;0.10;;
1625;SDS011;806;48.770;9.156;2023-01-16T14:30:23;0.30;;;0.10;;
1625;SDS011;806;48.770;9.156;2023-01-16T14:32:53;0.30;;;0.10;;
1625;SDS011;806;48.770;9.156;2023-01-16T14:35:23;0.30;;;0.10;;
1625;SDS011;806;48.770;9.156;2023-01-16T14:37:54;0.30;;;0.10;;
1625;SDS011;806;48.770;9.156;2023-01-16T14:40:25;0.40;;;0.10;;
1625;SDS011;806;48.770;9.156;2023-01-16T14:43:16;0.30;;;0.10;;
1625;SDS011;806;48.770;9.156;2023-01-16T14:46:28;0.30;;;0.10;;
1625;SDS011;806;48.770;9.156;2023-01-16T14:52:46;0.30;;;0.10;;
1625;SDS011;806;48.770;9.156;2023-01-16T14:55:46;0.40;;;0.10;;
1625;SDS011;806;48.770;9.156;2023-01-16T14:58:20;0.40;;;0.10;;
1625;SDS011;806;48.770;9.156;2023-01-16T15:00:54;0.30;;;0.10;;
1625;SDS011;806;48.770;9.156;2023-01-16T15:03:57;0.30;;;0.10;;
1625;SDS011;806;48.770;9.156;2023-01-16T15:06:26;0.30;;;0.10;;
1625;SDS011;806;48.770;9.156;2023-01-16T15:09:01;0.30;;;0.10;;
1625;SDS011;806;48.770;9.156;2023-01-16T15:11:30;0.30;;;0.10;;
1625;SDS011;806;48.770;9.156;2023-01-16T15:14:12;0.40;;;0.10;;
1625;SDS011;806;48.770;9.156;2023-01-16T15:16:54;0.40;;;0.20;;
1625;SDS011;806;48.770;9.156;2023-01-16T15:19:56;0.30;;;0.10;;
1625;SDS011;806;48.770;9.156;2023-01-16T15:22:45;0.30;;;0.10;;
1625;SDS011;806;48.770;9.156;2023-01-16T15:25:21;0.40;;;0.10;;
1625;SDS011;806;48.770;9.156;2023-01-16T15:28:00;0.40;;;0.10;;
1625;SDS011;806;48.770;9.156;2023-01-16T15:30:34;0.30;;;0.10;;
1625;SDS011;806;48.770;9.156;2023-01-16T15:33:03;0.30;;;0.10;;
1625;SDS011;806;48.770;9.156;2023-01-16T15:35:54;0.70;;;0.20;;
1625;SDS011;806;48.770;9.156;2023-01-16T15:38:22;0.80;;;0.10;;
1625;SDS011;806;48.770;9.156;2023-01-16T15:40:51;0.40;;;0.10;;
1625;SDS011;806;48.770;9.156;2023-01-16T15:43:22;0.30;;;0.10;;
1625;SDS011;806;48.770;9.156;2023-01-16T15:46:11;0.40;;;0.10;;
1625;SDS011;806;48.770;9.156;2023-01-16T15:49:00;0.38;;;0.10;;
1625;SDS011;806;48.770;9.156;2023-01-16T15:51:37;0.30;;;0.10;;
1625;SDS011;806;48.770;9.156;2023-01-16T15:54:05;1.30;;;0.10;;
1625;SDS011;806;48.770;9.156;2023-01-16T15:56:38;0.47;;;0.10;;
1625;SDS011;806;48.770;9.156;2023-01-16T15:59:19;0.70;;;0.10;;
1625;SDS011;806;48.770;9.156;2023-01-16T16:01:50;0.40;;;0.10;;
1625;SDS011;806;48.770;9.156;2023-01-16T16:04:17;0.30;;;0.10;;
1625;SDS011;806;48.770;9.156;2023-01-16T16:06:45;0.30;;;0.10;;
1625;SDS011;806;48.770;9.156;2023-01-16T16:09:14;0.30;;;0.10;;
1625;SDS011;806;48.770;9.156;2023-01-16T16:11:44;1.30;;;0.10;;
1625;SDS011;806;48.770;9.156;2023-01-16T16:14:19;0.30;;;0.10;;
1625;SDS011;806;48.770;9.156;2023-01-16T16:17:18;0.30;;;0.10;;
1625;SDS011;806;48.770;9.156;2023-01-16T16:20:23;0.40;;;0.10;;